sensor_id;sensor_type;location;lat;lon;timestamp;P1;durP1;ratioP1;P2;durP2;ratioP2
46765;SDS011;32527;51.986;5.842;2023-06-10T00:00:48;14.45;;;13.23;;
46765;SDS011;32527;51.986;5.842;2023-06-10T00:03:13;13.10;;;12.10;;
46765;SDS011;32527;51.986;5.842;2023-06-10T00:05:40;14.73;;;13.60;;
46765;SDS011;32527;51.986;5.842;2023-06-10T00:08:06;13.10;;;12.27;;
46765;SDS011;32527;51.986;5.842;2023-06-10T00:10:33;14.30;;;13.30;;
46765;SDS011;32527;51.986;5.842;2023-06-10T00:13:00;13.43;;;12.48;;
46765;SDS011;32527;51.986;5.842;2023-06-10T00:15:27;14.88;;;13.77;;
46765;SDS011;32527;51.986;5.842;2023-06-10T00:17:53;14.63;;;13.73;;
46765;SDS011;32527;51.986;5.842;2023-06-10T00:20:20;15.80;;;14.57;;
46765;SDS011;32527;51.986;5.842;2023-06-10T00:22:46;13.23;;;12.40;;
46765;SDS011;32527;51.986;5.842;2023-06-10T00:25:13;14.75;;;13.82;;
46765;SDS011;32527;51.986;5.842;2023-06-10T00:27:39;14.15;;;13.25;;
46765;SDS011;32527;51.986;5.842;2023-06-10T00:30:05;15.07;;;13.98;;
46765;SDS011;32527;51.986;5.842;2023-06-10T00:32:35;13.32;;;12.38;;
46765;SDS011;32527;51.986;5.842;2023-06-10T00:35:02;13.77;;;12.88;;
46765;SDS011;32527;51.986;5.842;2023-06-10T00:37:30;12.80;;;11.90;;
46765;SDS011;32527;51.986;5.842;2023-06-10T00:39:57;14.63;;;13.20;;
46765;SDS011;32527;51.986;5.842;2023-06-10T00:42:24;12.85;;;11.93;;
46765;SDS011;32527;51.986;5.842;2023-06-10T00:44:50;13.60;;;12.52;;
46765;SDS011;32527;51.986;5.842;2023-06-10T00:47:16;14.27;;;13.38;;
46765;SDS011;32527;51.986;5.842;2023-06-10T00:49:42;12.93;;;12.02;;
46765;SDS011;32527;51.986;5.842;2023-06-10T00:52:09;15.73;;;14.73;;
46765;SDS011;32527;51.986;5.842;2023-06-10T00:54:36;13.07;;;12.20;;
46765;SDS011;32527;51.986;5.842;2023-06-10T00:57:02;12.10;;;11.27;;
46765;SDS011;32527;51.986;5.842;2023-06-10T00:59:29;12.85;;;11.77;;
46765;SDS011;32527;51.986;5.842;2023-06-10T01:01:56;11.93;;;11.18;;
46765;SDS011;32527;51.986;5.842;2023-06-10T01:04:22;13.68;;;12.65;;
46765;SDS011;32527;51.986;5.842;2023-06-10T01:11:52;13.18;;;12.07;;
46765;SDS011;32527;51.986;5.842;2023-06-10T01:14:22;12.82;;;11.82;;
46765;SDS011;32527;51.986;5.842;2023-06-10T01:16:49;18.83;;;17.35;;
46765;SDS011;32527;51.986;5.842;2023-06-10T01:19:17;12.00;;;11.13;;
46765;SDS011;32527;51.986;5.842;2023-06-10T01:21:43;12.35;;;11.38;;
46765;SDS011;32527;51.986;5.842;2023-06-10T01:24:14;61.60;;;56.05;;
46765;SDS011;32527;51.986;5.842;2023-06-10T01:26:43;13.57;;;12.55;;
46765;SDS011;32527;51.986;5.842;2023-06-10T01:29:17;13.45;;;12.40;;
46765;SDS011;32527;51.986;5.842;2023-06-10T01:34:19;11.98;;;11.18;;
46765;SDS011;32527;51.986;5.842;2023-06-10T01:36:48;12.57;;;11.77;;
46765;SDS011;32527;51.986;5.842;2023-06-10T01:39:15;15.43;;;14.35;;
46765;SDS011;32527;51.986;5.842;2023-06-10T01:41:42;12.85;;;11.63;;
46765;SDS011;32527;51.986;5.842;2023-06-10T01:44:09;11.98;;;11.00;;
46765;SDS011;32527;51.986;5.842;2023-06-10T01:46:35;13.18;;;12.27;;
46765;SDS011;32527;51.986;5.842;2023-06-10T01:49:01;13.35;;;12.45;;
46765;SDS011;32527;51.986;5.842;2023-06-10T01:51:27;13.95;;;12.98;;
46765;SDS011;32527;51.986;5.842;2023-06-10T01:53:54;12.30;;;11.40;;
46765;SDS011;32527;51.986;5.842;2023-06-10T01:56:20;11.23;;;10.35;;
46765;SDS011;32527;51.986;5.842;2023-06-10T01:58:46;11.77;;;10.98;;
46765;SDS011;32527;51.986;5.842;2023-06-10T02:01:12;16.38;;;15.20;;
46765;SDS011;32527;51.986;5.842;2023-06-10T02:03:39;12.32;;;11.38;;
46765;SDS011;32527;51.986;5.842;2023-06-10T02:06:05;12.65;;;11.57;;
46765;SDS011;32527;51.986;5.842;2023-06-10T02:08:31;11.40;;;10.60;;
46765;SDS011;32527;51.986;5.842;2023-06-10T02:10:59;13.10;;;12.10;;
46765;SDS011;32527;51.986;5.842;2023-06-10T02:13:28;12.35;;;11.35;;
46765;SDS011;32527;51.986;5.842;2023-06-10T02:15:54;10.95;;;10.15;;
46765;SDS011;32527;51.986;5.842;2023-06-10T02:18:20;14.27;;;13.05;;
46765;SDS011;32527;51.986;5.842;2023-06-10T02:20:47;11.82;;;10.82;;
46765;SDS011;32527;51.986;5.842;2023-06-10T02:23:13;10.90;;;10.07;;
46765;SDS011;32527;51.986;5.842;2023-06-10T02:25:39;12.10;;;11.13;;
46765;SDS011;32527;51.986;5.842;2023-06-10T02:28:06;10.93;;;10.13;;
46765;SDS011;32527;51.986;5.842;2023-06-10T02:30:32;11.60;;;10.60;;
46765;SDS011;32527;51.986;5.842;2023-06-10T02:32:58;10.75;;;9.95;;
46765;SDS011;32527;51.986;5.842;2023-06-10T02:35:27;10.73;;;10.02;;
46765;SDS011;32527;51.986;5.842;2023-06-10T02:37:54;10.70;;;9.90;;
46765;SDS011;32527;51.986;5.842;2023-06-10T02:40:21;12.13;;;11.18;;
46765;SDS011;32527;51.986;5.842;2023-06-10T02:42:47;14.20;;;13.18;;
46765;SDS011;32527;51.986;5.842;2023-06-10T02:45:14;11.13;;;10.23;;
46765;SDS011;32527;51.986;5.842;2023-06-10T02:47:42;11.07;;;10.20;;
46765;SDS011;32527;51.986;5.842;2023-06-10T02:50:09;12.38;;;11.32;;
46765;SDS011;32527;51.986;5.842;2023-06-10T02:52:49;11.30;;;10.40;;
46765;SDS011;32527;51.986;5.842;2023-06-10T02:55:15;10.48;;;9.68;;
46765;SDS011;32527;51.986;5.842;2023-06-10T02:57:47;11.80;;;10.90;;
46765;SDS011;32527;51.986;5.842;2023-06-10T03:00:15;18.48;;;17.13;;
46765;SDS011;32527;51.986;5.842;2023-06-10T03:02:42;13.73;;;12.73;;
46765;SDS011;32527;51.986;5.842;2023-06-10T03:05:11;11.40;;;10.32;;
46765;SDS011;32527;51.986;5.842;2023-06-10T03:07:41;10.88;;;9.93;;
46765;SDS011;32527;51.986;5.842;2023-06-10T03:10:07;41.20;;;32.58;;
46765;SDS011;32527;51.986;5.842;2023-06-10T03:12:35;11.15;;;10.30;;
46765;SDS011;32527;51.986;5.842;2023-06-10T03:15:01;9.73;;;9.02;;
46765;SDS011;32527;51.986;5.842;2023-06-10T03:17:30;10.60;;;9.90;;
46765;SDS011;32527;51.986;5.842;2023-06-10T03:19:56;11.32;;;10.52;;
46765;SDS011;32527;51.986;5.842;2023-06-10T03:22:22;11.13;;;10.25;;
46765;SDS011;32527;51.986;5.842;2023-06-10T03:24:59;9.27;;;8.57;;
46765;SDS011;32527;51.986;5.842;2023-06-10T03:27:27;10.43;;;9.63;;
46765;SDS011;32527;51.986;5.842;2023-06-10T03:29:57;17.75;;;15.90;;
46765;SDS011;32527;51.986;5.842;2023-06-10T03:32:23;11.63;;;10.75;;
46765;SDS011;32527;51.986;5.842;2023-06-10T03:34:49;10.32;;;9.52;;
46765;SDS011;32527;51.986;5.842;2023-06-10T03:37:17;16.98;;;15.23;;
46765;SDS011;32527;51.986;5.842;2023-06-10T03:39:46;11.15;;;10.35;;
46765;SDS011;32527;51.986;5.842;2023-06-10T03:42:12;12.13;;;11.23;;
46765;SDS011;32527;51.986;5.842;2023-06-10T03:44:38;10.45;;;9.65;;
46765;SDS011;32527;51.986;5.842;2023-06-10T03:47:04;9.73;;;9.02;;
46765;SDS011;32527;51.986;5.842;2023-06-10T03:49:30;11.75;;;10.95;;
46765;SDS011;32527;51.986;5.842;2023-06-10T03:52:00;10.75;;;10.05;;
46765;SDS011;32527;51.986;5.842;2023-06-10T03:54:26;12.77;;;10.57;;
46765;SDS011;32527;51.986;5.842;2023-06-10T03:56:52;11.40;;;10.63;;
46765;SDS011;32527;51.986;5.842;2023-06-10T03:59:18;11.23;;;10.43;;
46765;SDS011;32527;51.986;5.842;2023-06-10T04:01:44;12.35;;;11.55;;
46765;SDS011;32527;51.986;5.842;2023-06-10T04:04:13;16.08;;;14.75;;
46765;SDS011;32527;51.986;5.842;2023-06-10T04:06:41;12.13;;;11.23;;
46765;SDS011;32527;51.986;5.842;2023-06-10T04:09:09;10.57;;;9.50;;
46765;SDS011;32527;51.986;5.842;2023-06-10T04:11:36;10.43;;;9.57;;
46765;SDS011;32527;51.986;5.842;2023-06-10T04:14:02;11.13;;;10.43;;
46765;SDS011;32527;51.986;5.842;2023-06-10T04:16:29;12.57;;;11.60;;
46765;SDS011;32527;51.986;5.842;2023-06-10T04:18:55;9.38;;;8.60;;
46765;SDS011;32527;51.986;5.842;2023-06-10T04:21:23;13.60;;;12.57;;
46765;SDS011;32527;51.986;5.842;2023-06-10T04:23:49;10.65;;;9.88;;
46765;SDS011;32527;51.986;5.842;2023-06-10T04:26:16;9.90;;;9.20;;
46765;SDS011;32527;51.986;5.842;2023-06-10T04:28:42;10.80;;;9.90;;
46765;SDS011;32527;51.986;5.842;2023-06-10T04:31:08;10.15;;;9.35;;
46765;SDS011;32527;51.986;5.842;2023-06-10T04:33:35;12.32;;;11.52;;
46765;SDS011;32527;51.986;5.842;2023-06-10T04:36:02;10.10;;;9.30;;
46765;SDS011;32527;51.986;5.842;2023-06-10T04:38:30;11.07;;;10.10;;
46765;SDS011;32527;51.986;5.842;2023-06-10T04:40:58;10.68;;;9.68;;
46765;SDS011;32527;51.986;5.842;2023-06-10T04:43:25;10.50;;;9.68;;
46765;SDS011;32527;51.986;5.842;2023-06-10T04:45:54;11.77;;;10.93;;
46765;SDS011;32527;51.986;5.842;2023-06-10T04:48:20;20.25;;;13.73;;
46765;SDS011;32527;51.986;5.842;2023-06-10T04:50:48;13.57;;;12.65;;
46765;SDS011;32527;51.986;5.842;2023-06-10T04:53:15;14.55;;;13.32;;
46765;SDS011;32527;51.986;5.842;2023-06-10T04:55:44;13.27;;;12.15;;
46765;SDS011;32527;51.986;5.842;2023-06-10T04:58:10;12.75;;;11.95;;
46765;SDS011;32527;51.986;5.842;2023-06-10T05:00:36;11.00;;;10.20;;
46765;SDS011;32527;51.986;5.842;2023-06-10T05:03:02;12.02;;;11.23;;
46765;SDS011;32527;51.986;5.842;2023-06-10T05:05:28;26.13;;;24.63;;
46765;SDS011;32527;51.986;5.842;2023-06-10T05:07:54;27.65;;;25.48;;
46765;SDS011;32527;51.986;5.842;2023-06-10T05:10:20;14.10;;;13.07;;
46765;SDS011;32527;51.986;5.842;2023-06-10T05:12:46;15.05;;;14.05;;
46765;SDS011;32527;51.986;5.842;2023-06-10T05:15:12;17.75;;;16.35;;
46765;SDS011;32527;51.986;5.842;2023-06-10T05:17:38;11.90;;;11.18;;
46765;SDS011;32527;51.986;5.842;2023-06-10T05:20:04;14.38;;;13.48;;
46765;SDS011;32527;51.986;5.842;2023-06-10T05:22:31;13.50;;;12.50;;
46765;SDS011;32527;51.986;5.842;2023-06-10T05:24:57;13.25;;;12.23;;
46765;SDS011;32527;51.986;5.842;2023-06-10T05:27:23;13.73;;;12.73;;
46765;SDS011;32527;51.986;5.842;2023-06-10T05:29:49;14.60;;;13.70;;
46765;SDS011;32527;51.986;5.842;2023-06-10T05:32:16;15.32;;;14.32;;
46765;SDS011;32527;51.986;5.842;2023-06-10T05:34:42;16.42;;;15.32;;
46765;SDS011;32527;51.986;5.842;2023-06-10T05:37:08;14.95;;;13.88;;
46765;SDS011;32527;51.986;5.842;2023-06-10T05:39:35;14.45;;;13.15;;
46765;SDS011;32527;51.986;5.842;2023-06-10T05:42:05;16.70;;;15.60;;
46765;SDS011;32527;51.986;5.842;2023-06-10T05:44:31;15.48;;;14.48;;
46765;SDS011;32527;51.986;5.842;2023-06-10T05:46:57;16.15;;;15.07;;
46765;SDS011;32527;51.986;5.842;2023-06-10T05:49:23;17.60;;;16.55;;
46765;SDS011;32527;51.986;5.842;2023-06-10T05:51:49;22.48;;;20.95;;
46765;SDS011;32527;51.986;5.842;2023-06-10T05:54:15;19.50;;;18.30;;
46765;SDS011;32527;51.986;5.842;2023-06-10T05:56:41;19.60;;;18.45;;
46765;SDS011;32527;51.986;5.842;2023-06-10T05:59:07;20.92;;;19.73;;
46765;SDS011;32527;51.986;5.842;2023-06-10T06:01:32;22.50;;;20.95;;
46765;SDS011;32527;51.986;5.842;2023-06-10T06:03:58;23.73;;;22.20;;
46765;SDS011;32527;51.986;5.842;2023-06-10T06:06:24;28.33;;;26.55;;
46765;SDS011;32527;51.986;5.842;2023-06-10T06:08:50;33.97;;;32.00;;
46765;SDS011;32527;51.986;5.842;2023-06-10T06:11:16;43.13;;;40.50;;
46765;SDS011;32527;51.986;5.842;2023-06-10T06:13:42;44.50;;;41.88;;
46765;SDS011;32527;51.986;5.842;2023-06-10T06:16:08;46.47;;;44.05;;
46765;SDS011;32527;51.986;5.842;2023-06-10T06:18:34;46.30;;;43.78;;
46765;SDS011;32527;51.986;5.842;2023-06-10T06:21:00;45.58;;;43.05;;
46765;SDS011;32527;51.986;5.842;2023-06-10T06:23:25;38.30;;;36.08;;
46765;SDS011;32527;51.986;5.842;2023-06-10T06:25:51;40.67;;;38.05;;
46765;SDS011;32527;51.986;5.842;2023-06-10T06:28:17;38.75;;;36.45;;
46765;SDS011;32527;51.986;5.842;2023-06-10T06:30:46;45.20;;;42.45;;
46765;SDS011;32527;51.986;5.842;2023-06-10T06:33:12;43.03;;;40.60;;
46765;SDS011;32527;51.986;5.842;2023-06-10T06:35:38;41.30;;;38.92;;
46765;SDS011;32527;51.986;5.842;2023-06-10T06:38:04;42.63;;;40.28;;
46765;SDS011;32527;51.986;5.842;2023-06-10T06:40:31;45.67;;;42.90;;
46765;SDS011;32527;51.986;5.842;2023-06-10T06:42:57;46.03;;;43.58;;
46765;SDS011;32527;51.986;5.842;2023-06-10T06:45:52;45.90;;;43.30;;
46765;SDS011;32527;51.986;5.842;2023-06-10T06:48:18;50.35;;;46.60;;
46765;SDS011;32527;51.986;5.842;2023-06-10T06:50:44;44.05;;;41.63;;
46765;SDS011;32527;51.986;5.842;2023-06-10T06:53:11;41.53;;;38.92;;
46765;SDS011;32527;51.986;5.842;2023-06-10T06:55:37;44.05;;;41.47;;
46765;SDS011;32527;51.986;5.842;2023-06-10T06:58:03;45.25;;;42.63;;
46765;SDS011;32527;51.986;5.842;2023-06-10T07:00:30;45.35;;;42.80;;
46765;SDS011;32527;51.986;5.842;2023-06-10T07:02:56;43.38;;;40.88;;
46765;SDS011;32527;51.986;5.842;2023-06-10T07:05:23;43.20;;;40.70;;
46765;SDS011;32527;51.986;5.842;2023-06-10T07:07:52;36.58;;;34.75;;
46765;SDS011;32527;51.986;5.842;2023-06-10T07:10:23;48.08;;;45.30;;
46765;SDS011;32527;51.986;5.842;2023-06-10T07:12:50;43.25;;;40.65;;
46765;SDS011;32527;51.986;5.842;2023-06-10T07:15:16;45.15;;;42.22;;
46765;SDS011;32527;51.986;5.842;2023-06-10T07:17:43;48.58;;;45.67;;
46765;SDS011;32527;51.986;5.842;2023-06-10T07:20:09;43.88;;;41.17;;
46765;SDS011;32527;51.986;5.842;2023-06-10T07:22:36;45.40;;;42.92;;
46765;SDS011;32527;51.986;5.842;2023-06-10T07:25:04;45.22;;;42.75;;
46765;SDS011;32527;51.986;5.842;2023-06-10T07:27:30;45.60;;;43.05;;
46765;SDS011;32527;51.986;5.842;2023-06-10T07:29:56;42.83;;;40.40;;
46765;SDS011;32527;51.986;5.842;2023-06-10T07:32:22;42.20;;;40.00;;
46765;SDS011;32527;51.986;5.842;2023-06-10T07:34:49;42.95;;;40.53;;
46765;SDS011;32527;51.986;5.842;2023-06-10T07:37:15;51.03;;;47.85;;
46765;SDS011;32527;51.986;5.842;2023-06-10T07:39:41;48.53;;;45.35;;
46765;SDS011;32527;51.986;5.842;2023-06-10T07:42:08;47.72;;;44.83;;
46765;SDS011;32527;51.986;5.842;2023-06-10T07:44:35;45.03;;;42.15;;
46765;SDS011;32527;51.986;5.842;2023-06-10T07:47:01;43.22;;;40.70;;
46765;SDS011;32527;51.986;5.842;2023-06-10T07:49:27;42.45;;;40.25;;
46765;SDS011;32527;51.986;5.842;2023-06-10T07:51:54;46.83;;;44.08;;
46765;SDS011;32527;51.986;5.842;2023-06-10T07:54:20;42.50;;;40.05;;
46765;SDS011;32527;51.986;5.842;2023-06-10T07:56:46;44.35;;;41.72;;
46765;SDS011;32527;51.986;5.842;2023-06-10T07:59:13;42.65;;;40.15;;
46765;SDS011;32527;51.986;5.842;2023-06-10T08:01:39;41.25;;;38.80;;
46765;SDS011;32527;51.986;5.842;2023-06-10T08:04:07;45.88;;;43.38;;
46765;SDS011;32527;51.986;5.842;2023-06-10T08:06:33;45.85;;;42.53;;
46765;SDS011;32527;51.986;5.842;2023-06-10T08:08:58;42.92;;;40.00;;
46765;SDS011;32527;51.986;5.842;2023-06-10T08:11:25;39.55;;;37.38;;
46765;SDS011;32527;51.986;5.842;2023-06-10T08:13:53;41.08;;;38.65;;
46765;SDS011;32527;51.986;5.842;2023-06-10T08:16:19;43.08;;;40.60;;
46765;SDS011;32527;51.986;5.842;2023-06-10T08:18:45;40.10;;;37.63;;
46765;SDS011;32527;51.986;5.842;2023-06-10T08:21:11;43.97;;;41.50;;
46765;SDS011;32527;51.986;5.842;2023-06-10T08:23:37;37.78;;;35.63;;
46765;SDS011;32527;51.986;5.842;2023-06-10T08:26:04;42.38;;;39.45;;
46765;SDS011;32527;51.986;5.842;2023-06-10T08:28:30;38.33;;;36.10;;
46765;SDS011;32527;51.986;5.842;2023-06-10T08:30:56;36.92;;;34.78;;
46765;SDS011;32527;51.986;5.842;2023-06-10T08:33:22;35.05;;;33.25;;
46765;SDS011;32527;51.986;5.842;2023-06-10T08:35:48;37.78;;;35.88;;
46765;SDS011;32527;51.986;5.842;2023-06-10T08:38:14;48.97;;;46.00;;
46765;SDS011;32527;51.986;5.842;2023-06-10T08:40:41;31.75;;;30.10;;
46765;SDS011;32527;51.986;5.842;2023-06-10T08:43:07;34.05;;;31.67;;
46765;SDS011;32527;51.986;5.842;2023-06-10T08:45:40;32.90;;;31.13;;
46765;SDS011;32527;51.986;5.842;2023-06-10T08:48:10;33.90;;;31.88;;
46765;SDS011;32527;51.986;5.842;2023-06-10T08:50:39;33.08;;;31.20;;
46765;SDS011;32527;51.986;5.842;2023-06-10T08:53:06;32.35;;;30.42;;
46765;SDS011;32527;51.986;5.842;2023-06-10T08:55:33;43.03;;;39.97;;
46765;SDS011;32527;51.986;5.842;2023-06-10T08:58:03;32.03;;;30.38;;
46765;SDS011;32527;51.986;5.842;2023-06-10T09:00:30;34.05;;;32.15;;
46765;SDS011;32527;51.986;5.842;2023-06-10T09:02:56;34.05;;;32.15;;
46765;SDS011;32527;51.986;5.842;2023-06-10T09:05:22;31.67;;;29.88;;
46765;SDS011;32527;51.986;5.842;2023-06-10T09:07:48;48.08;;;44.15;;
46765;SDS011;32527;51.986;5.842;2023-06-10T09:10:16;37.85;;;35.55;;
46765;SDS011;32527;51.986;5.842;2023-06-10T09:15:10;34.10;;;32.00;;
46765;SDS011;32527;51.986;5.842;2023-06-10T09:17:42;38.75;;;35.17;;
46765;SDS011;32527;51.986;5.842;2023-06-10T09:20:08;34.53;;;32.55;;
46765;SDS011;32527;51.986;5.842;2023-06-10T09:22:34;39.15;;;36.90;;
46765;SDS011;32527;51.986;5.842;2023-06-10T09:25:07;33.85;;;31.98;;
46765;SDS011;32527;51.986;5.842;2023-06-10T09:27:43;36.70;;;34.35;;
46765;SDS011;32527;51.986;5.842;2023-06-10T09:30:10;37.78;;;35.15;;
46765;SDS011;32527;51.986;5.842;2023-06-10T09:32:39;38.92;;;36.72;;
46765;SDS011;32527;51.986;5.842;2023-06-10T09:35:09;35.42;;;33.63;;
46765;SDS011;32527;51.986;5.842;2023-06-10T09:37:37;38.70;;;36.45;;
46765;SDS011;32527;51.986;5.842;2023-06-10T09:40:04;36.25;;;34.15;;
46765;SDS011;32527;51.986;5.842;2023-06-10T09:42:35;38.33;;;36.15;;
46765;SDS011;32527;51.986;5.842;2023-06-10T09:45:05;42.33;;;39.85;;
46765;SDS011;32527;51.986;5.842;2023-06-10T09:47:32;39.28;;;37.10;;
46765;SDS011;32527;51.986;5.842;2023-06-10T09:49:58;44.33;;;41.95;;
46765;SDS011;32527;51.986;5.842;2023-06-10T09:52:25;44.30;;;41.80;;
46765;SDS011;32527;51.986;5.842;2023-06-10T09:54:52;43.55;;;40.75;;
46765;SDS011;32527;51.986;5.842;2023-06-10T09:57:21;38.47;;;36.47;;
46765;SDS011;32527;51.986;5.842;2023-06-10T09:59:47;57.00;;;42.97;;
46765;SDS011;32527;51.986;5.842;2023-06-10T10:02:14;36.38;;;34.35;;
46765;SDS011;32527;51.986;5.842;2023-06-10T10:04:41;37.20;;;35.15;;
46765;SDS011;32527;51.986;5.842;2023-06-10T10:07:07;41.28;;;38.92;;
46765;SDS011;32527;51.986;5.842;2023-06-10T10:09:35;39.55;;;37.17;;
46765;SDS011;32527;51.986;5.842;2023-06-10T10:12:02;48.08;;;44.40;;
46765;SDS011;32527;51.986;5.842;2023-06-10T10:14:33;38.17;;;36.22;;
46765;SDS011;32527;51.986;5.842;2023-06-10T10:17:00;37.95;;;35.83;;
46765;SDS011;32527;51.986;5.842;2023-06-10T10:19:30;34.70;;;32.97;;
46765;SDS011;32527;51.986;5.842;2023-06-10T10:22:04;34.63;;;32.72;;
46765;SDS011;32527;51.986;5.842;2023-06-10T10:24:37;34.53;;;32.67;;
46765;SDS011;32527;51.986;5.842;2023-06-10T10:27:07;34.85;;;32.53;;
46765;SDS011;32527;51.986;5.842;2023-06-10T10:29:41;33.88;;;31.95;;
46765;SDS011;32527;51.986;5.842;2023-06-10T10:32:10;33.58;;;31.75;;
46765;SDS011;32527;51.986;5.842;2023-06-10T10:34:42;33.17;;;31.13;;
46765;SDS011;32527;51.986;5.842;2023-06-10T10:37:19;31.65;;;29.85;;
46765;SDS011;32527;51.986;5.842;2023-06-10T10:39:45;33.53;;;31.58;;
46765;SDS011;32527;51.986;5.842;2023-06-10T10:42:11;39.17;;;35.85;;
46765;SDS011;32527;51.986;5.842;2023-06-10T10:44:38;30.45;;;28.92;;
46765;SDS011;32527;51.986;5.842;2023-06-10T10:47:04;31.85;;;29.95;;
46765;SDS011;32527;51.986;5.842;2023-06-10T10:49:34;32.47;;;30.27;;
46765;SDS011;32527;51.986;5.842;2023-06-10T10:52:02;35.75;;;33.60;;
46765;SDS011;32527;51.986;5.842;2023-06-10T10:54:34;33.83;;;31.98;;
46765;SDS011;32527;51.986;5.842;2023-06-10T10:57:14;36.70;;;34.50;;
46765;SDS011;32527;51.986;5.842;2023-06-10T10:59:57;33.10;;;30.80;;
46765;SDS011;32527;51.986;5.842;2023-06-10T11:02:34;38.38;;;36.10;;
46765;SDS011;32527;51.986;5.842;2023-06-10T11:05:08;30.80;;;28.75;;
46765;SDS011;32527;51.986;5.842;2023-06-10T11:07:51;28.67;;;26.98;;
46765;SDS011;32527;51.986;5.842;2023-06-10T11:10:20;28.45;;;26.70;;
46765;SDS011;32527;51.986;5.842;2023-06-10T11:15:33;26.40;;;24.90;;
46765;SDS011;32527;51.986;5.842;2023-06-10T11:18:08;33.80;;;31.40;;
46765;SDS011;32527;51.986;5.842;2023-06-10T11:26:13;31.10;;;29.40;;
46765;SDS011;32527;51.986;5.842;2023-06-10T11:31:32;36.35;;;33.85;;
46765;SDS011;32527;51.986;5.842;2023-06-10T11:34:04;32.35;;;30.30;;
46765;SDS011;32527;51.986;5.842;2023-06-10T11:36:33;36.63;;;33.83;;
46765;SDS011;32527;51.986;5.842;2023-06-10T11:39:02;34.83;;;32.50;;
46765;SDS011;32527;51.986;5.842;2023-06-10T11:41:30;33.45;;;31.10;;
46765;SDS011;32527;51.986;5.842;2023-06-10T11:43:56;31.10;;;29.17;;
46765;SDS011;32527;51.986;5.842;2023-06-10T11:46:23;38.08;;;35.33;;
46765;SDS011;32527;51.986;5.842;2023-06-10T11:48:53;43.17;;;40.33;;
46765;SDS011;32527;51.986;5.842;2023-06-10T11:51:27;31.30;;;29.38;;
46765;SDS011;32527;51.986;5.842;2023-06-10T11:54:14;40.22;;;36.45;;
46765;SDS011;32527;51.986;5.842;2023-06-10T11:56:41;29.80;;;27.95;;
46765;SDS011;32527;51.986;5.842;2023-06-10T11:59:07;28.98;;;27.48;;
46765;SDS011;32527;51.986;5.842;2023-06-10T12:01:34;29.92;;;27.88;;
46765;SDS011;32527;51.986;5.842;2023-06-10T12:04:07;35.70;;;33.60;;
46765;SDS011;32527;51.986;5.842;2023-06-10T12:09:24;47.22;;;44.53;;
46765;SDS011;32527;51.986;5.842;2023-06-10T12:11:58;41.53;;;39.35;;
46765;SDS011;32527;51.986;5.842;2023-06-10T12:19:56;45.83;;;43.00;;
46765;SDS011;32527;51.986;5.842;2023-06-10T12:22:22;45.65;;;42.65;;
46765;SDS011;32527;51.986;5.842;2023-06-10T12:24:59;45.47;;;43.03;;
46765;SDS011;32527;51.986;5.842;2023-06-10T12:27:28;46.35;;;43.90;;
46765;SDS011;32527;51.986;5.842;2023-06-10T12:29:54;44.80;;;42.33;;
46765;SDS011;32527;51.986;5.842;2023-06-10T12:32:21;43.58;;;41.28;;
46765;SDS011;32527;51.986;5.842;2023-06-10T12:35:01;48.20;;;45.17;;
46765;SDS011;32527;51.986;5.842;2023-06-10T12:37:29;47.97;;;45.00;;
46765;SDS011;32527;51.986;5.842;2023-06-10T12:39:59;43.75;;;41.38;;
46765;SDS011;32527;51.986;5.842;2023-06-10T12:42:27;49.47;;;46.50;;
46765;SDS011;32527;51.986;5.842;2023-06-10T12:44:54;43.08;;;40.78;;
46765;SDS011;32527;51.986;5.842;2023-06-10T12:47:28;45.60;;;42.80;;
46765;SDS011;32527;51.986;5.842;2023-06-10T12:49:57;46.30;;;43.63;;
46765;SDS011;32527;51.986;5.842;2023-06-10T12:52:24;42.83;;;40.40;;
46765;SDS011;32527;51.986;5.842;2023-06-10T12:54:50;44.45;;;41.92;;
46765;SDS011;32527;51.986;5.842;2023-06-10T12:57:17;47.20;;;44.38;;
46765;SDS011;32527;51.986;5.842;2023-06-10T12:59:43;44.85;;;42.45;;
46765;SDS011;32527;51.986;5.842;2023-06-10T13:02:17;45.03;;;42.42;;
46765;SDS011;32527;51.986;5.842;2023-06-10T13:04:43;44.72;;;42.33;;
46765;SDS011;32527;51.986;5.842;2023-06-10T13:07:09;46.80;;;44.03;;
46765;SDS011;32527;51.986;5.842;2023-06-10T13:09:35;46.90;;;43.75;;
46765;SDS011;32527;51.986;5.842;2023-06-10T13:12:01;47.95;;;45.53;;
46765;SDS011;32527;51.986;5.842;2023-06-10T13:14:27;42.25;;;40.15;;
46765;SDS011;32527;51.986;5.842;2023-06-10T13:16:54;51.28;;;48.42;;
46765;SDS011;32527;51.986;5.842;2023-06-10T13:19:20;53.75;;;50.78;;
46765;SDS011;32527;51.986;5.842;2023-06-10T13:21:49;44.25;;;41.80;;
46765;SDS011;32527;51.986;5.842;2023-06-10T13:24:15;48.08;;;45.40;;
46765;SDS011;32527;51.986;5.842;2023-06-10T13:26:45;44.58;;;42.13;;
46765;SDS011;32527;51.986;5.842;2023-06-10T13:29:11;47.13;;;44.67;;
46765;SDS011;32527;51.986;5.842;2023-06-10T13:31:39;44.88;;;42.42;;
46765;SDS011;32527;51.986;5.842;2023-06-10T13:34:05;46.83;;;44.30;;
46765;SDS011;32527;51.986;5.842;2023-06-10T13:36:32;55.95;;;51.60;;
46765;SDS011;32527;51.986;5.842;2023-06-10T13:38:58;41.05;;;38.72;;
46765;SDS011;32527;51.986;5.842;2023-06-10T13:41:24;51.65;;;48.65;;
46765;SDS011;32527;51.986;5.842;2023-06-10T13:43:53;49.50;;;46.55;;
46765;SDS011;32527;51.986;5.842;2023-06-10T13:46:20;46.90;;;44.20;;
46765;SDS011;32527;51.986;5.842;2023-06-10T13:48:47;51.17;;;48.42;;
46765;SDS011;32527;51.986;5.842;2023-06-10T13:51:13;46.92;;;43.90;;
46765;SDS011;32527;51.986;5.842;2023-06-10T13:53:39;47.17;;;44.55;;
46765;SDS011;32527;51.986;5.842;2023-06-10T13:56:05;45.47;;;43.03;;
46765;SDS011;32527;51.986;5.842;2023-06-10T13:58:32;44.95;;;42.45;;
46765;SDS011;32527;51.986;5.842;2023-06-10T14:01:03;42.92;;;40.72;;
46765;SDS011;32527;51.986;5.842;2023-06-10T14:03:29;43.67;;;41.38;;
46765;SDS011;32527;51.986;5.842;2023-06-10T14:05:55;46.95;;;44.30;;
46765;SDS011;32527;51.986;5.842;2023-06-10T14:08:21;46.00;;;43.45;;
46765;SDS011;32527;51.986;5.842;2023-06-10T14:10:48;44.58;;;42.35;;
46765;SDS011;32527;51.986;5.842;2023-06-10T14:13:15;48.45;;;45.40;;
46765;SDS011;32527;51.986;5.842;2023-06-10T14:15:42;45.55;;;42.78;;
46765;SDS011;32527;51.986;5.842;2023-06-10T14:18:08;46.00;;;43.60;;
46765;SDS011;32527;51.986;5.842;2023-06-10T14:20:34;46.92;;;44.33;;
46765;SDS011;32527;51.986;5.842;2023-06-10T14:23:00;45.70;;;43.20;;
46765;SDS011;32527;51.986;5.842;2023-06-10T14:25:26;48.33;;;45.45;;
46765;SDS011;32527;51.986;5.842;2023-06-10T14:27:52;46.22;;;43.58;;
46765;SDS011;32527;51.986;5.842;2023-06-10T14:30:18;43.25;;;40.95;;
46765;SDS011;32527;51.986;5.842;2023-06-10T14:32:44;43.88;;;41.58;;
46765;SDS011;32527;51.986;5.842;2023-06-10T14:35:10;44.63;;;42.00;;
46765;SDS011;32527;51.986;5.842;2023-06-10T14:37:36;41.65;;;39.42;;
46765;SDS011;32527;51.986;5.842;2023-06-10T14:40:03;45.75;;;43.20;;
46765;SDS011;32527;51.986;5.842;2023-06-10T14:42:30;42.55;;;40.35;;
46765;SDS011;32527;51.986;5.842;2023-06-10T14:44:57;45.90;;;43.40;;
46765;SDS011;32527;51.986;5.842;2023-06-10T14:47:23;46.72;;;43.97;;
46765;SDS011;32527;51.986;5.842;2023-06-10T14:49:50;46.83;;;44.35;;
46765;SDS011;32527;51.986;5.842;2023-06-10T14:52:16;46.75;;;44.08;;
46765;SDS011;32527;51.986;5.842;2023-06-10T14:54:42;48.13;;;45.53;;